createdAt,value
2019-03-28T00:01:12.775Z,32.57
2019-03-28T00:03:38.860Z,34.57
2019-03-28T00:06:04.890Z,31.90
2019-03-28T00:08:30.915Z,30.17
2019-03-28T00:10:57.023Z,32.47
2019-03-28T00:13:23.031Z,36.20
2019-03-28T00:15:49.047Z,30.70
2019-03-28T00:18:15.072Z,30.27
2019-03-28T00:20:41.111Z,33.47
2019-03-28T00:23:11.747Z,28.93
2019-03-28T00:25:38.202Z,29.33
2019-03-28T00:28:04.436Z,28.50
2019-03-28T00:30:30.467Z,34.67
2019-03-28T00:32:56.483Z,26.90
2019-03-28T00:35:22.525Z,30.80
2019-03-28T00:37:48.560Z,30.33
2019-03-28T00:40:14.587Z,31.37
2019-03-28T00:42:43.686Z,26.03
2019-03-28T00:45:10.068Z,31.13
2019-03-28T00:47:36.244Z,34.40
2019-03-28T00:50:04.259Z,33.80
2019-03-28T00:52:30.305Z,31.23
2019-03-28T00:54:56.332Z,30.10
2019-03-28T00:57:22.383Z,37.73
2019-03-28T00:59:49.240Z,31.77
2019-03-28T01:02:15.379Z,36.47
2019-03-28T01:04:41.388Z,35.93
2019-03-28T01:07:07.431Z,39.07
2019-03-28T01:09:33.451Z,38.90
2019-03-28T01:11:59.736Z,37.33
2019-03-28T01:14:25.752Z,29.43
2019-03-28T01:16:51.787Z,34.23
2019-03-28T01:19:17.800Z,32.20
2019-03-28T01:21:43.835Z,39.53
2019-03-28T01:24:09.851Z,40.20
2019-03-28T01:26:35.903Z,39.30
2019-03-28T01:29:01.913Z,36.63
2019-03-28T01:31:27.997Z,39.87
2019-03-28T01:33:54.003Z,36.63
2019-03-28T01:36:20.021Z,36.73
2019-03-28T01:38:46.055Z,42.83
2019-03-28T01:41:12.101Z,39.73
2019-03-28T01:43:38.180Z,43.60
2019-03-28T01:46:04.216Z,40.43
2019-03-28T01:48:30.252Z,34.57
2019-03-28T01:50:56.270Z,39.10
2019-03-28T01:53:22.328Z,36.97
2019-03-28T01:55:48.343Z,37.85
2019-03-28T01:58:14.448Z,38.80
2019-03-28T02:00:40.575Z,41.00
2019-03-28T02:03:06.619Z,37.50
2019-03-28T02:05:32.627Z,37.10
2019-03-28T02:07:58.666Z,33.60
2019-03-28T02:10:24.671Z,36.93
2019-03-28T02:12:50.716Z,32.77
2019-03-28T02:15:16.738Z,36.40
2019-03-28T02:17:42.763Z,40.20
2019-03-28T02:20:09.205Z,44.77
2019-03-28T02:22:35.325Z,39.60
2019-03-28T02:25:01.336Z,41.60
2019-03-28T02:27:27.387Z,36.63
2019-03-28T02:29:53.402Z,39.13
2019-03-28T02:32:19.536Z,31.87
2019-03-28T02:34:48.850Z,49.00
2019-03-28T02:37:13.467Z,32.23
2019-03-28T02:39:39.503Z,40.27
2019-03-28T02:42:05.519Z,35.70
2019-03-28T02:44:31.566Z,36.07
2019-03-28T02:46:57.588Z,41.60
2019-03-28T02:49:23.620Z,44.53
2019-03-28T02:51:49.645Z,39.43
2019-03-28T02:54:15.670Z,40.23
2019-03-28T02:56:41.877Z,43.10
2019-03-28T02:59:08.215Z,47.37
2019-03-28T03:01:34.240Z,41.43
2019-03-28T03:04:00.275Z,45.33
2019-03-28T03:06:26.295Z,39.67
2019-03-28T03:08:52.346Z,52.20
2019-03-28T03:11:18.350Z,44.03
2019-03-28T03:13:45.789Z,39.07
2019-03-28T03:16:12.132Z,42.17
2019-03-28T03:18:38.164Z,38.17
2019-03-28T03:21:04.186Z,41.93
2019-03-28T03:23:30.203Z,43.17
2019-03-28T03:25:56.228Z,43.27
2019-03-28T03:28:22.276Z,50.87
2019-03-28T03:30:48.279Z,51.40
2019-03-28T03:33:14.324Z,43.60
2019-03-28T03:35:40.358Z,49.88
2019-03-28T03:38:06.459Z,47.20
2019-03-28T03:40:32.507Z,46.80
2019-03-28T03:42:58.506Z,49.70
2019-03-28T03:45:24.765Z,48.57
2019-03-28T03:47:50.814Z,48.57
2019-03-28T03:50:25.926Z,48.13
2019-03-28T03:52:51.941Z,45.40
2019-03-28T03:55:17.992Z,49.83
2019-03-28T03:57:44.028Z,43.90
2019-03-28T04:00:12.366Z,45.43
2019-03-28T04:02:38.397Z,44.43
2019-03-28T04:05:05.505Z,45.23
2019-03-28T04:07:31.602Z,42.17
2019-03-28T04:09:57.651Z,50.13
2019-03-28T04:12:23.669Z,49.20
2019-03-28T04:14:49.726Z,44.97
2019-03-28T04:17:15.739Z,50.53
2019-03-28T04:19:41.768Z,46.30
2019-03-28T04:22:07.785Z,43.50
2019-03-28T04:24:33.821Z,44.67
2019-03-28T04:26:59.840Z,53.30
2019-03-28T04:29:25.884Z,42.07
2019-03-28T04:31:57.925Z,50.60
2019-03-28T04:34:23.960Z,46.03
2019-03-28T04:36:49.975Z,49.90
2019-03-28T04:39:16.629Z,53.13
2019-03-28T04:41:42.953Z,49.07
2019-03-28T04:44:08.992Z,59.67
2019-03-28T04:46:35.000Z,49.20
2019-03-28T04:49:01.019Z,62.77
2019-03-28T04:51:27.486Z,50.83
2019-03-28T04:53:56.231Z,56.87
2019-03-28T04:56:21.711Z,62.70
2019-03-28T04:58:53.538Z,51.87
2019-03-28T05:01:19.584Z,54.33
2019-03-28T05:03:45.655Z,67.70
2019-03-28T05:06:11.875Z,47.17
2019-03-28T05:08:37.996Z,66.40
2019-03-28T05:11:04.036Z,54.90
2019-03-28T05:13:30.063Z,50.90
2019-03-28T05:15:56.141Z,55.97
2019-03-28T05:18:22.220Z,59.77
2019-03-28T05:20:48.246Z,58.87
2019-03-28T05:23:14.393Z,53.07
2019-03-28T05:25:40.595Z,54.50
2019-03-28T05:28:06.619Z,49.57
2019-03-28T05:30:32.667Z,57.87
2019-03-28T05:32:58.673Z,55.13
2019-03-28T05:35:24.820Z,52.40
2019-03-28T05:37:50.867Z,59.30
2019-03-28T05:40:16.919Z,53.87
2019-03-28T05:42:42.930Z,48.10
2019-03-28T05:45:09.567Z,61.37
2019-03-28T05:47:35.693Z,54.63
2019-03-28T05:50:01.921Z,48.43
2019-03-28T05:52:27.953Z,55.77
2019-03-28T05:54:54.117Z,51.13
2019-03-28T05:57:20.147Z,59.77
2019-03-28T05:59:46.288Z,62.67
2019-03-28T06:02:12.427Z,69.60
2019-03-28T06:04:38.444Z,59.53
2019-03-28T06:07:04.478Z,60.20
2019-03-28T06:09:30.504Z,59.73
2019-03-28T06:11:56.537Z,63.03
2019-03-28T06:14:22.560Z,69.27
2019-03-28T06:16:48.595Z,69.63
2019-03-28T06:19:14.639Z,66.27
2019-03-28T06:21:40.680Z,62.03
2019-03-28T06:24:06.704Z,55.80
2019-03-28T06:26:32.736Z,53.73
2019-03-28T06:28:58.755Z,65.40
2019-03-28T06:31:24.787Z,72.40
2019-03-28T06:33:50.811Z,72.97
2019-03-28T06:36:16.853Z,68.43
2019-03-28T06:38:42.943Z,65.23
2019-03-28T06:41:09.007Z,66.27
2019-03-28T06:43:35.027Z,61.90
2019-03-28T06:46:01.872Z,67.60
2019-03-28T06:48:27.909Z,66.07
2019-03-28T06:50:53.948Z,68.30
2019-03-28T06:53:19.974Z,63.43
2019-03-28T06:55:46.019Z,70.03
2019-03-28T06:58:12.039Z,66.83
2019-03-28T07:00:38.118Z,58.27
2019-03-28T07:03:04.126Z,61.77
2019-03-28T07:05:30.195Z,69.83
2019-03-28T07:07:56.229Z,65.90
2019-03-28T07:10:22.347Z,59.33
2019-03-28T07:12:48.427Z,60.47
2019-03-28T07:15:14.635Z,64.97
2019-03-28T07:17:40.695Z,64.30
2019-03-28T07:20:09.142Z,69.40
2019-03-28T07:22:35.127Z,65.23
2019-03-28T07:25:01.160Z,61.93
2019-03-28T07:27:27.199Z,71.30
2019-03-28T07:29:53.339Z,67.13
2019-03-28T07:32:19.364Z,66.07
2019-03-28T07:34:45.375Z,61.23
2019-03-28T07:37:11.417Z,60.97
2019-03-28T07:39:37.428Z,57.70
2019-03-28T07:42:03.459Z,64.60
2019-03-28T07:44:29.476Z,62.80
2019-03-28T07:46:55.545Z,62.27
2019-03-28T07:49:21.551Z,76.80
2019-03-28T07:51:47.598Z,59.80
2019-03-28T07:54:13.626Z,63.23
2019-03-28T07:56:39.656Z,64.13
2019-03-28T07:59:05.707Z,53.93
2019-03-28T08:01:31.744Z,65.70
2019-03-28T08:03:57.769Z,50.10
2019-03-28T08:06:23.804Z,59.83
2019-03-28T08:08:49.840Z,51.93
2019-03-28T08:11:15.899Z,51.37
2019-03-28T08:13:41.987Z,55.87
2019-03-28T08:16:08.015Z,54.80
2019-03-28T08:18:34.065Z,46.23
2019-03-28T08:21:00.071Z,44.10
2019-03-28T08:23:26.101Z,49.13
2019-03-28T08:25:52.199Z,52.60
2019-03-28T08:28:18.240Z,46.60
2019-03-28T08:30:45.460Z,54.93
2019-03-28T08:33:11.695Z,44.13
2019-03-28T08:35:37.722Z,46.23
2019-03-28T08:38:05.159Z,40.03
2019-03-28T08:40:39.680Z,36.60
2019-03-28T08:43:05.203Z,43.20
2019-03-28T08:45:31.418Z,40.00
2019-03-28T08:47:57.572Z,44.80
2019-03-28T08:50:23.598Z,39.90
2019-03-28T08:52:49.619Z,34.00
2019-03-28T08:55:15.665Z,35.37
2019-03-28T08:57:41.719Z,43.43
2019-03-28T09:00:10.051Z,43.67
2019-03-28T09:02:36.099Z,37.03
2019-03-28T09:05:03.500Z,30.50
2019-03-28T09:07:29.588Z,35.27
2019-03-28T09:09:55.603Z,36.53
2019-03-28T09:12:21.651Z,30.17
2019-03-28T09:14:47.695Z,29.80
2019-03-28T09:17:13.716Z,29.07
2019-03-28T09:19:40.428Z,29.63
2019-03-28T09:22:06.439Z,26.17
2019-03-28T09:24:32.476Z,24.83
2019-03-28T09:26:58.500Z,19.53
2019-03-28T09:29:24.534Z,23.97
2019-03-28T09:31:50.650Z,23.67
2019-03-28T09:34:16.686Z,21.33
2019-03-28T09:36:42.716Z,23.73
2019-03-28T09:39:08.834Z,26.90
2019-03-28T09:41:34.848Z,24.60
2019-03-28T09:44:01.921Z,21.10
2019-03-28T09:46:28.067Z,21.07
2019-03-28T09:48:54.124Z,18.13
2019-03-28T09:51:20.235Z,25.00
2019-03-28T09:53:46.271Z,20.53
2019-03-28T09:56:12.307Z,17.10
2019-03-28T09:58:38.335Z,12.70
2019-03-28T10:01:04.361Z,23.80
2019-03-28T10:03:30.450Z,14.43
2019-03-28T10:05:56.573Z,19.17
2019-03-28T10:08:22.620Z,21.53
2019-03-28T10:10:48.921Z,17.07
2019-03-28T10:13:14.984Z,16.90
2019-03-28T10:15:41.123Z,18.93
2019-03-28T10:18:07.166Z,20.80
2019-03-28T10:20:33.247Z,11.07
2019-03-28T10:22:59.276Z,14.90
2019-03-28T10:25:25.351Z,19.23
2019-03-28T10:27:51.367Z,15.55
2019-03-28T10:30:21.206Z,12.97
2019-03-28T10:32:47.231Z,12.90
2019-03-28T10:35:17.110Z,15.20
2019-03-28T10:37:43.128Z,10.50
2019-03-28T10:40:09.269Z,12.43
2019-03-28T10:42:35.293Z,10.73
2019-03-28T10:45:01.987Z,12.57
2019-03-28T10:47:27.991Z,17.27
2019-03-28T10:49:54.037Z,15.87
2019-03-28T10:52:20.044Z,12.97
2019-03-28T10:54:46.084Z,9.90
2019-03-28T10:57:13.795Z,12.73
2019-03-28T10:59:40.095Z,12.13
2019-03-28T11:02:06.229Z,14.57
2019-03-28T11:04:32.274Z,15.63
2019-03-28T11:06:58.592Z,13.87
2019-03-28T11:09:25.027Z,13.93
2019-03-28T11:11:51.040Z,13.67
2019-03-28T11:14:17.070Z,17.27
2019-03-28T11:16:43.091Z,11.50
2019-03-28T11:19:09.143Z,11.13
2019-03-28T11:21:35.182Z,9.33
2019-03-28T11:24:02.006Z,19.03
2019-03-28T11:26:28.083Z,13.07
2019-03-28T11:28:54.124Z,17.33
2019-03-28T11:31:20.235Z,14.20
2019-03-28T11:33:46.283Z,12.27
2019-03-28T11:36:12.384Z,12.07
2019-03-28T11:38:38.459Z,11.97
2019-03-28T11:41:04.480Z,10.50
2019-03-28T11:43:30.492Z,13.20
2019-03-28T11:45:56.531Z,12.10
2019-03-28T11:48:22.552Z,7.63
2019-03-28T11:50:48.586Z,11.63
2019-03-28T11:53:14.601Z,10.30
2019-03-28T11:55:40.628Z,12.67
2019-03-28T11:58:06.680Z,16.30
2019-03-28T12:00:32.728Z,15.33
2019-03-28T12:02:58.753Z,16.60
2019-03-28T12:05:24.775Z,12.00
2019-03-28T12:07:50.801Z,7.50
2019-03-28T12:10:16.935Z,12.33
2019-03-28T12:12:45.996Z,9.03
2019-03-28T12:15:12.535Z,14.57
2019-03-28T12:17:38.563Z,15.13
2019-03-28T12:20:08.097Z,17.33
2019-03-28T12:22:34.245Z,16.33
2019-03-28T12:25:01.156Z,18.93
2019-03-28T12:27:27.168Z,17.23
2019-03-28T12:29:53.248Z,15.87
2019-03-28T12:32:19.255Z,13.27
2019-03-28T12:34:45.667Z,16.70
2019-03-28T12:37:12.051Z,14.43
2019-03-28T12:39:38.500Z,16.37
2019-03-28T12:42:04.878Z,12.50
2019-03-28T12:44:31.288Z,17.90
2019-03-28T12:46:57.719Z,10.83
2019-03-28T12:49:24.113Z,11.67
2019-03-28T12:51:50.499Z,9.93
2019-03-28T12:54:16.899Z,8.07
2019-03-28T12:56:43.287Z,10.40
2019-03-28T12:59:09.670Z,6.57
2019-03-28T13:01:36.076Z,11.60
2019-03-28T13:04:02.463Z,8.03
2019-03-28T13:06:28.884Z,8.33
2019-03-28T13:08:55.295Z,9.77
2019-03-28T13:11:21.695Z,8.23
2019-03-28T13:13:48.080Z,8.10
2019-03-28T13:16:14.499Z,9.20
2019-03-28T13:18:40.931Z,9.93
2019-03-28T13:21:13.217Z,10.90
2019-03-28T13:23:35.811Z,9.27
2019-03-28T13:26:02.227Z,12.33
2019-03-28T13:28:28.774Z,12.07
2019-03-28T13:30:55.380Z,12.00
2019-03-28T13:33:21.753Z,8.90
2019-03-28T13:35:48.155Z,10.37
2019-03-28T13:38:14.564Z,10.03
2019-03-28T13:40:40.970Z,8.97
2019-03-28T13:43:07.359Z,10.17
2019-03-28T13:45:33.878Z,11.70
2019-03-28T13:48:00.275Z,8.93
2019-03-28T13:50:26.680Z,9.80
2019-03-28T13:52:53.063Z,9.13
2019-03-28T13:55:19.543Z,12.30
2019-03-28T13:57:45.931Z,9.83
2019-03-28T14:00:12.563Z,10.73
2019-03-28T14:02:38.961Z,7.17
2019-03-28T14:05:06.379Z,10.53
2019-03-28T14:07:32.806Z,8.37
2019-03-28T14:09:59.271Z,7.17
2019-03-28T14:12:25.651Z,12.07
2019-03-28T14:14:52.123Z,5.83
2019-03-28T14:17:19.605Z,9.07
2019-03-28T14:19:46.115Z,12.10
2019-03-28T14:22:12.543Z,6.13
2019-03-28T14:24:38.965Z,8.57
2019-03-28T14:27:05.353Z,8.27
2019-03-28T14:29:31.775Z,9.60
2019-03-28T14:31:59.921Z,8.03
2019-03-28T14:34:26.643Z,9.80
2019-03-28T14:36:53.019Z,5.57
2019-03-28T14:39:19.419Z,10.20
2019-03-28T14:41:46.455Z,8.20
2019-03-28T14:44:13.123Z,6.50
2019-03-28T14:46:39.515Z,7.83
2019-03-28T14:49:05.981Z,6.77
2019-03-28T14:51:32.514Z,6.77
2019-03-28T14:53:58.980Z,8.23
2019-03-28T14:56:25.844Z,6.97
2019-03-28T14:58:53.063Z,7.00
2019-03-28T15:01:19.451Z,6.07
2019-03-28T15:03:45.855Z,5.27
2019-03-28T15:06:12.287Z,4.53
2019-03-28T15:08:38.723Z,4.23
2019-03-28T15:11:05.257Z,6.30
2019-03-28T15:13:31.648Z,5.87
2019-03-28T15:15:58.031Z,5.57
2019-03-28T15:18:24.419Z,4.70
2019-03-28T15:20:50.859Z,7.40
2019-03-28T15:23:17.247Z,4.53
2019-03-28T15:25:43.740Z,8.17
2019-03-28T15:28:10.125Z,4.50
2019-03-28T15:30:37.908Z,6.43
2019-03-28T15:33:04.319Z,4.73
2019-03-28T15:35:30.739Z,4.80
2019-03-28T15:37:57.160Z,4.47
2019-03-28T15:40:23.570Z,3.80
2019-03-28T15:42:49.974Z,6.13
2019-03-28T15:45:16.377Z,8.53
2019-03-28T15:47:43.576Z,5.10
2019-03-28T15:50:09.960Z,6.37
2019-03-28T15:52:35.998Z,5.53
2019-03-28T15:55:03.343Z,6.00
2019-03-28T15:57:29.407Z,4.77
2019-03-28T15:59:55.446Z,7.03
2019-03-28T16:02:21.464Z,5.53
2019-03-28T16:04:49.432Z,7.53
2019-03-28T16:07:15.491Z,7.73
2019-03-28T16:09:41.547Z,7.78
2019-03-28T16:12:07.588Z,7.90
2019-03-28T16:14:33.705Z,4.97
2019-03-28T16:16:59.911Z,4.23
2019-03-28T16:19:25.963Z,4.50
2019-03-28T16:21:52.003Z,6.50
2019-03-28T16:24:19.145Z,5.33
2019-03-28T16:26:45.375Z,5.70
2019-03-28T16:29:11.395Z,4.67
2019-03-28T16:31:37.465Z,5.00
2019-03-28T16:34:07.058Z,4.13
2019-03-28T16:36:31.645Z,4.27
2019-03-28T16:38:57.668Z,4.17
2019-03-28T16:41:24.109Z,4.20
2019-03-28T16:43:50.508Z,4.83
2019-03-28T16:46:16.623Z,3.30
2019-03-28T16:48:42.643Z,3.83
2019-03-28T16:51:10.580Z,4.23
2019-03-28T16:53:36.704Z,3.13
2019-03-28T16:56:02.787Z,3.77
2019-03-28T16:58:28.803Z,3.43
2019-03-28T17:00:54.848Z,2.90
2019-03-28T17:03:20.863Z,3.62
2019-03-28T17:05:47.241Z,5.00
2019-03-28T17:08:14.486Z,3.30
2019-03-28T17:10:46.064Z,2.93
2019-03-28T17:13:14.906Z,2.80
2019-03-28T17:15:40.871Z,2.83
2019-03-28T17:18:06.876Z,2.70
2019-03-28T17:20:32.908Z,2.93
2019-03-28T17:22:58.940Z,4.97
2019-03-28T17:25:24.981Z,2.83
2019-03-28T17:27:51.035Z,2.70
2019-03-28T17:30:17.074Z,6.67
2019-03-28T17:32:43.106Z,5.57
2019-03-28T17:35:12.577Z,2.20
2019-03-28T17:37:37.183Z,6.43
2019-03-28T17:40:05.311Z,3.20
2019-03-28T17:42:31.402Z,4.07
2019-03-28T17:44:57.479Z,3.90
2019-03-28T17:47:23.530Z,4.00
2019-03-28T17:49:49.639Z,3.33
2019-03-28T17:52:15.804Z,2.80
2019-03-28T17:54:43.244Z,4.70
2019-03-28T17:57:09.269Z,4.20
2019-03-28T17:59:35.315Z,3.83
2019-03-28T18:02:01.952Z,4.23
2019-03-28T18:04:27.967Z,5.40
2019-03-28T18:06:56.923Z,4.37
2019-03-28T18:09:23.190Z,6.40
2019-03-28T18:11:49.204Z,3.10
2019-03-28T18:14:15.226Z,3.93
2019-03-28T18:16:41.267Z,5.63
2019-03-28T18:19:07.289Z,3.63
2019-03-28T18:21:34.063Z,4.47
2019-03-28T18:24:00.085Z,5.30
2019-03-28T18:26:26.121Z,55.33
2019-03-28T18:28:52.216Z,7.50
2019-03-28T18:31:31.233Z,7.57
2019-03-28T18:33:58.793Z,7.50
2019-03-28T18:36:26.881Z,6.70
2019-03-28T18:38:52.992Z,11.60
2019-03-28T18:41:19.080Z,8.10
2019-03-28T18:43:47.732Z,11.43
2019-03-28T18:46:14.898Z,10.30
2019-03-28T18:48:41.125Z,7.97
2019-03-28T18:51:07.207Z,11.67
2019-03-28T18:53:33.295Z,9.73
2019-03-28T18:55:59.343Z,9.57
2019-03-28T18:58:25.420Z,10.70
2019-03-28T19:00:51.620Z,7.13
2019-03-28T19:03:17.755Z,10.87
2019-03-28T19:05:43.788Z,11.13
2019-03-28T19:08:09.852Z,9.43
2019-03-28T19:10:36.017Z,7.90
2019-03-28T19:13:04.702Z,24.10
2019-03-28T19:15:30.195Z,12.33
2019-03-28T19:17:56.370Z,13.70
2019-03-28T19:20:22.470Z,16.77
2019-03-28T19:22:50.221Z,19.13
2019-03-28T19:25:16.620Z,17.30
2019-03-28T19:27:42.908Z,22.07
2019-03-28T19:30:10.031Z,19.30
2019-03-28T19:32:36.101Z,19.45
2019-03-28T19:35:04.429Z,11.00
2019-03-28T19:37:30.648Z,11.87
2019-03-28T19:39:57.540Z,12.57
2019-03-28T19:42:23.676Z,33.17
2019-03-28T19:44:49.808Z,13.53
2019-03-28T19:47:20.410Z,13.25
2019-03-28T19:49:49.916Z,11.67
2019-03-28T19:52:18.975Z,11.87
2019-03-28T19:54:45.014Z,12.30
2019-03-28T19:57:11.048Z,10.60
2019-03-28T19:59:37.152Z,14.57
2019-03-28T20:02:06.132Z,18.27
2019-03-28T20:04:32.347Z,12.60
2019-03-28T20:06:58.428Z,13.23
2019-03-28T20:09:24.458Z,10.40
2019-03-28T20:11:50.616Z,8.97
2019-03-28T20:14:16.949Z,10.30
2019-03-28T20:16:43.216Z,8.77
2019-03-28T20:19:09.499Z,10.47
2019-03-28T20:21:35.609Z,10.20
2019-03-28T20:24:01.750Z,6.73
2019-03-28T20:26:27.782Z,8.63
2019-03-28T20:28:53.820Z,9.40
2019-03-28T20:31:19.939Z,7.37
2019-03-28T20:33:46.104Z,9.43
2019-03-28T20:36:36.205Z,10.33
2019-03-28T20:38:40.181Z,12.97
2019-03-28T20:41:06.306Z,10.40
2019-03-28T20:43:32.365Z,8.70
2019-03-28T20:45:58.387Z,7.63
2019-03-28T20:48:24.463Z,9.20
2019-03-28T20:50:50.500Z,9.77
2019-03-28T20:53:16.545Z,9.20
2019-03-28T20:55:42.685Z,12.07
2019-03-28T20:58:08.716Z,6.93
2019-03-28T21:00:39.986Z,7.00
2019-03-28T21:03:06.132Z,9.10
2019-03-28T21:05:32.259Z,8.33
2019-03-28T21:07:58.286Z,5.93
2019-03-28T21:10:24.737Z,6.87
2019-03-28T21:12:52.280Z,5.83
2019-03-28T21:15:18.317Z,9.57
2019-03-28T21:17:45.276Z,6.20
2019-03-28T21:20:11.361Z,11.70
2019-03-28T21:22:37.396Z,10.43
2019-03-28T21:25:05.333Z,9.30
2019-03-28T21:27:31.375Z,7.30
2019-03-28T21:29:57.636Z,6.70
2019-03-28T21:32:23.874Z,23.47
2019-03-28T21:34:49.904Z,6.17
2019-03-28T21:37:15.949Z,9.83
2019-03-28T21:39:41.970Z,6.63
2019-03-28T21:42:08.631Z,6.50
2019-03-28T21:44:34.792Z,8.57
2019-03-28T21:47:02.110Z,7.57
2019-03-28T21:49:28.136Z,8.60
2019-03-28T21:51:54.200Z,7.87
2019-03-28T21:54:20.211Z,7.50
2019-03-28T21:56:46.261Z,7.20
2019-03-28T21:59:12.336Z,5.80
2019-03-28T22:01:38.361Z,8.30
2019-03-28T22:04:04.511Z,8.77
2019-03-28T22:06:42.344Z,7.00
2019-03-28T22:08:58.896Z,7.60
2019-03-28T22:11:25.204Z,7.87
2019-03-28T22:13:51.362Z,9.43
2019-03-28T22:16:17.392Z,8.70
2019-03-28T22:18:43.422Z,6.87
2019-03-28T22:21:10.050Z,8.67
2019-03-28T22:23:36.212Z,10.77
2019-03-28T22:26:02.228Z,9.23
2019-03-28T22:28:28.254Z,7.97
2019-03-28T22:30:54.293Z,8.83
2019-03-28T22:33:20.351Z,7.97
2019-03-28T22:35:46.467Z,10.17
2019-03-28T22:38:12.523Z,9.50
2019-03-28T22:40:38.575Z,7.93
2019-03-28T22:43:04.692Z,6.37
2019-03-28T22:45:30.726Z,12.00
2019-03-28T22:48:09.732Z,11.63
2019-03-28T22:50:24.683Z,9.83
2019-03-28T22:52:50.722Z,6.90
2019-03-28T22:55:16.767Z,8.40
2019-03-28T22:57:42.896Z,6.57
2019-03-28T23:00:11.731Z,9.20
2019-03-28T23:02:38.063Z,8.13
2019-03-28T23:05:07.175Z,8.47
2019-03-28T23:07:33.271Z,9.33
2019-03-28T23:09:59.289Z,7.07
2019-03-28T23:12:25.319Z,9.83
2019-03-28T23:14:51.342Z,6.73
2019-03-28T23:17:17.384Z,7.53
2019-03-28T23:19:43.501Z,8.30
2019-03-28T23:22:09.508Z,9.83
2019-03-28T23:24:38.874Z,11.23
2019-03-28T23:27:03.536Z,9.43
2019-03-28T23:29:29.587Z,9.60
2019-03-28T23:31:55.616Z,6.83
2019-03-28T23:34:22.235Z,7.90
2019-03-28T23:36:48.958Z,11.10
2019-03-28T23:39:14.997Z,8.33
2019-03-28T23:41:41.018Z,9.57
2019-03-28T23:44:07.143Z,9.93
2019-03-28T23:46:33.163Z,10.17
2019-03-28T23:48:59.196Z,10.67
2019-03-28T23:51:25.219Z,8.07
2019-03-28T23:53:51.265Z,7.90
2019-03-28T23:56:17.272Z,12.90
2019-03-28T23:58:43.307Z,8.80
